Terminal Aerodrome Forecast
Issued by NWS

Home | Current Version | Previous Version | Graphics & Text | Print | Product List | Glossary On
Versions: 1 2 3 4 5 6 7 8 9 10 11 12 13 14 15 16 17 18 19 20 21 22 23 24 25 26
000
FTUS43 KBIS 231227 AAA
TAFJMS
TAF AMD
KJMS 231227Z 2312/2412 15009KT P6SM BKN120
     FM231400 17008KT 6SM -RA BKN080
      TEMPO 2314/2315 -FZRA
     FM231800 12007KT P6SM VCSH OVC050
     FM232200 07006KT P6SM VCSH OVC030
     FM240200 36008KT P6SM OVC025
     FM241100 36010KT P6SM BKN015=

USA.gov is the U.S. government's official web portal to all federal, state and local government web resources and services.